createdAt,value
2022-10-22T00:00:13.485Z,15.74
2022-10-22T00:01:15.986Z,15.62
2022-10-22T00:02:13.441Z,15.51
2022-10-22T00:03:13.436Z,15.50
2022-10-22T00:04:13.426Z,15.47
2022-10-22T00:05:13.482Z,15.39
2022-10-22T00:06:13.394Z,15.54
2022-10-22T00:07:14.378Z,15.62
2022-10-22T00:08:14.376Z,15.62
2022-10-22T00:09:13.470Z,15.59
2022-10-22T00:10:13.364Z,15.67
2022-10-22T00:11:13.349Z,15.76
2022-10-22T00:12:13.355Z,15.71
2022-10-22T00:13:13.349Z,15.67
2022-10-22T00:14:13.323Z,15.76
2022-10-22T00:15:13.326Z,15.89
2022-10-22T00:16:13.323Z,15.76
2022-10-22T00:17:13.296Z,15.90
2022-10-22T00:18:13.287Z,15.93
2022-10-22T00:19:13.273Z,15.83
2022-10-22T00:20:13.261Z,15.86
2022-10-22T00:21:13.271Z,15.89
2022-10-22T00:22:13.241Z,15.76
2022-10-22T00:23:13.249Z,15.89
2022-10-22T00:24:13.217Z,15.86
2022-10-22T00:25:13.219Z,15.90
2022-10-22T00:26:13.210Z,15.82
2022-10-22T00:27:13.191Z,15.89
2022-10-22T00:28:13.205Z,15.83
2022-10-22T00:29:13.169Z,15.83
2022-10-22T00:30:13.158Z,15.84
2022-10-22T00:31:13.160Z,15.82
2022-10-22T00:32:13.138Z,15.86
2022-10-22T00:33:13.136Z,15.89
2022-10-22T00:34:13.135Z,15.84
2022-10-22T00:35:13.122Z,15.71
2022-10-22T00:36:13.168Z,15.78
2022-10-22T00:37:13.086Z,15.75
2022-10-22T00:38:13.093Z,15.72
2022-10-22T00:39:13.076Z,15.68
2022-10-22T00:40:13.064Z,15.68
2022-10-22T00:41:13.078Z,15.72
2022-10-22T00:42:13.042Z,15.68
2022-10-22T00:43:13.038Z,15.76
2022-10-22T00:44:13.025Z,15.72
2022-10-22T00:45:13.014Z,15.68
2022-10-22T00:46:12.996Z,15.72
2022-10-22T00:47:13.018Z,15.80
2022-10-22T00:48:12.979Z,15.62
2022-10-22T00:49:12.985Z,15.59
2022-10-22T00:50:12.999Z,15.68
2022-10-22T00:51:12.969Z,15.59
2022-10-22T00:52:12.957Z,15.65
2022-10-22T00:53:12.936Z,15.68
2022-10-22T00:54:12.930Z,15.62
2022-10-22T00:55:12.929Z,15.68
2022-10-22T00:56:12.916Z,15.65
2022-10-22T00:57:12.895Z,15.67
2022-10-22T00:58:12.883Z,15.65
2022-10-22T00:59:12.878Z,15.65
2022-10-22T01:00:12.865Z,15.78
2022-10-22T01:01:12.905Z,15.75
2022-10-22T01:02:12.840Z,15.69
2022-10-22T01:03:12.829Z,15.83
2022-10-22T01:04:12.839Z,15.71
2022-10-22T01:05:12.854Z,15.82
2022-10-22T01:06:12.831Z,15.82
2022-10-22T01:07:12.797Z,15.76
2022-10-22T01:08:12.788Z,15.87
2022-10-22T01:09:12.774Z,15.87
2022-10-22T01:10:12.770Z,15.74
2022-10-22T01:11:12.755Z,15.64
2022-10-22T01:12:12.760Z,15.75
2022-10-22T01:13:12.758Z,15.72
2022-10-22T01:14:12.748Z,15.69
2022-10-22T01:15:12.716Z,15.78
2022-10-22T01:16:12.724Z,15.82
2022-10-22T01:17:12.732Z,15.84
2022-10-22T01:18:12.685Z,15.80
2022-10-22T01:19:12.701Z,15.93
2022-10-22T01:20:12.668Z,15.83
2022-10-22T01:21:12.666Z,15.78
2022-10-22T01:22:12.653Z,15.78
2022-10-22T01:23:12.640Z,15.78
2022-10-22T01:24:12.637Z,15.78
2022-10-22T01:25:12.653Z,15.75
2022-10-22T01:26:12.649Z,15.76
2022-10-22T01:27:12.612Z,15.74
2022-10-22T01:28:12.605Z,15.67
2022-10-22T01:29:12.592Z,15.67
2022-10-22T01:30:12.592Z,15.71
2022-10-22T01:31:12.576Z,15.74
2022-10-22T01:32:12.556Z,15.72
2022-10-22T01:33:12.547Z,15.82
2022-10-22T01:34:12.528Z,15.69
2022-10-22T01:35:12.571Z,15.74
2022-10-22T01:36:12.514Z,15.62
2022-10-22T01:37:12.504Z,15.53
2022-10-22T01:38:12.501Z,15.59
2022-10-22T01:39:12.473Z,15.56
2022-10-22T01:40:12.511Z,15.57
2022-10-22T01:41:12.473Z,15.53
2022-10-22T01:42:12.443Z,15.57
2022-10-22T01:43:12.445Z,15.57
2022-10-22T01:44:12.432Z,15.64
2022-10-22T01:45:12.429Z,15.59
2022-10-22T01:46:12.416Z,15.65
2022-10-22T01:47:12.406Z,15.65
2022-10-22T01:48:12.401Z,15.65
2022-10-22T01:49:12.381Z,15.62
2022-10-22T01:50:12.394Z,15.60
2022-10-22T01:51:12.386Z,15.54
2022-10-22T01:52:12.348Z,15.64
2022-10-22T01:53:12.350Z,15.50
2022-10-22T01:54:12.330Z,15.47
2022-10-22T01:55:12.312Z,15.57
2022-10-22T01:56:12.327Z,15.49
2022-10-22T01:57:12.300Z,15.46
2022-10-22T01:58:12.301Z,15.44
2022-10-22T01:59:12.286Z,15.57
2022-10-22T02:00:12.272Z,15.41
2022-10-22T02:01:12.332Z,15.43
2022-10-22T02:02:12.255Z,15.32
2022-10-22T02:03:13.244Z,15.27
2022-10-22T02:04:12.236Z,15.27
2022-10-22T02:05:12.246Z,15.35
2022-10-22T02:06:12.209Z,15.31
2022-10-22T02:07:12.197Z,15.34
2022-10-22T02:08:12.185Z,15.39
2022-10-22T02:09:12.223Z,15.35
2022-10-22T02:10:12.190Z,15.29
2022-10-22T02:11:12.153Z,15.31
2022-10-22T02:12:12.157Z,15.23
2022-10-22T02:13:12.158Z,15.20
2022-10-22T02:14:12.128Z,15.20
2022-10-22T02:15:12.118Z,15.17
2022-10-22T02:16:12.123Z,15.21
2022-10-22T02:17:12.104Z,15.19
2022-10-22T02:18:12.101Z,15.19
2022-10-22T02:19:12.079Z,15.21
2022-10-22T02:20:12.076Z,15.25
2022-10-22T02:21:12.083Z,15.31
2022-10-22T02:22:12.047Z,15.32
2022-10-22T02:23:12.039Z,15.39
2022-10-22T02:24:12.027Z,15.36
2022-10-22T02:25:12.019Z,15.41
2022-10-22T02:26:12.046Z,15.38
2022-10-22T02:27:12.010Z,15.36
2022-10-22T02:28:11.998Z,15.38
2022-10-22T02:29:11.975Z,15.46
2022-10-22T02:30:12.030Z,15.39
2022-10-22T02:31:11.983Z,15.43
2022-10-22T02:32:11.960Z,15.25
2022-10-22T02:33:11.957Z,15.31
2022-10-22T02:34:11.955Z,15.32
2022-10-22T02:35:11.923Z,15.27
2022-10-22T02:36:11.939Z,15.31
2022-10-22T02:37:11.908Z,15.34
2022-10-22T02:38:12.027Z,15.35
2022-10-22T02:39:11.906Z,15.41
2022-10-22T02:40:11.862Z,15.36
2022-10-22T02:41:11.851Z,15.43
2022-10-22T02:42:11.870Z,15.35
2022-10-22T02:43:11.856Z,15.35
2022-10-22T02:44:11.832Z,15.28
2022-10-22T02:45:11.888Z,15.31
2022-10-22T02:46:11.822Z,15.21
2022-10-22T02:47:11.805Z,15.28
2022-10-22T02:48:11.872Z,15.27
2022-10-22T02:49:11.791Z,15.27
2022-10-22T02:50:11.797Z,15.27
2022-10-22T02:51:43.665Z,15.23
2022-10-22T02:52:11.771Z,15.35
2022-10-22T02:53:11.754Z,15.25
2022-10-22T02:54:11.738Z,15.34
2022-10-22T02:55:11.718Z,15.38
2022-10-22T02:56:11.716Z,15.25
2022-10-22T02:57:11.761Z,15.23
2022-10-22T02:58:11.717Z,15.23
2022-10-22T02:59:11.690Z,15.23
2022-10-22T03:00:11.695Z,15.20
2022-10-22T03:01:15.215Z,15.21
2022-10-22T03:02:11.650Z,15.25
2022-10-22T03:03:11.643Z,15.25
2022-10-22T03:04:11.660Z,15.27
2022-10-22T03:05:11.620Z,15.25
2022-10-22T03:06:11.682Z,15.25
2022-10-22T03:07:11.605Z,15.27
2022-10-22T03:08:11.589Z,15.31
2022-10-22T03:09:12.622Z,15.27
2022-10-22T03:10:11.568Z,15.35
2022-10-22T03:11:11.563Z,15.36
2022-10-22T03:12:11.554Z,15.36
2022-10-22T03:13:11.548Z,15.34
2022-10-22T03:14:11.547Z,15.35
2022-10-22T03:15:11.540Z,15.35
2022-10-22T03:16:11.513Z,15.41
2022-10-22T03:17:11.504Z,15.34
2022-10-22T03:18:11.504Z,15.21
2022-10-22T03:19:11.546Z,15.31
2022-10-22T03:20:11.485Z,15.14
2022-10-22T03:21:11.491Z,15.13
2022-10-22T03:22:11.460Z,15.17
2022-10-22T03:23:11.451Z,15.14
2022-10-22T03:24:11.463Z,15.29
2022-10-22T03:25:11.437Z,15.21
2022-10-22T03:26:11.433Z,15.20
2022-10-22T03:27:11.416Z,15.20
2022-10-22T03:28:11.405Z,15.25
2022-10-22T03:29:11.394Z,15.27
2022-10-22T03:30:11.378Z,15.32
2022-10-22T03:31:11.366Z,15.19
2022-10-22T03:32:11.353Z,15.09
2022-10-22T03:33:11.369Z,15.11
2022-10-22T03:34:11.329Z,15.02
2022-10-22T03:35:11.338Z,15.23
2022-10-22T03:36:11.316Z,15.25
2022-10-22T03:37:11.324Z,15.17
2022-10-22T03:38:11.275Z,15.21
2022-10-22T03:39:11.281Z,15.20
2022-10-22T03:40:11.282Z,15.27
2022-10-22T03:41:11.242Z,15.31
2022-10-22T03:42:12.263Z,15.16
2022-10-22T03:43:11.231Z,15.28
2022-10-22T03:44:11.229Z,15.28
2022-10-22T03:45:11.224Z,15.32
2022-10-22T03:46:12.206Z,15.28
2022-10-22T03:47:11.216Z,15.17
2022-10-22T03:48:11.221Z,15.28
2022-10-22T03:49:11.173Z,15.23
2022-10-22T03:50:11.164Z,15.09
2022-10-22T03:51:11.154Z,15.16
2022-10-22T03:52:11.153Z,15.23
2022-10-22T03:53:11.130Z,15.23
2022-10-22T03:54:11.143Z,15.16
2022-10-22T03:55:11.132Z,15.25
2022-10-22T03:56:11.111Z,15.25
2022-10-22T03:57:11.120Z,15.19
2022-10-22T03:58:11.114Z,15.32
2022-10-22T03:59:11.071Z,15.17
2022-10-22T04:00:11.058Z,15.20
2022-10-22T04:01:11.120Z,15.19
2022-10-22T04:02:11.045Z,15.20
2022-10-22T04:03:11.051Z,15.21
2022-10-22T04:04:11.016Z,15.31
2022-10-22T04:05:11.086Z,15.27
2022-10-22T04:06:11.011Z,15.19
2022-10-22T04:07:10.999Z,15.17
2022-10-22T04:08:10.997Z,15.14
2022-10-22T04:09:11.017Z,15.21
2022-10-22T04:10:10.967Z,15.16
2022-10-22T04:11:10.944Z,15.19
2022-10-22T04:12:10.953Z,15.16
2022-10-22T04:13:10.941Z,15.11
2022-10-22T04:14:10.928Z,15.20
2022-10-22T04:15:10.914Z,15.09
2022-10-22T04:16:10.923Z,15.13
2022-10-22T04:17:10.899Z,15.07
2022-10-22T04:18:10.890Z,15.07
2022-10-22T04:19:10.870Z,15.13
2022-10-22T04:20:10.861Z,15.10
2022-10-22T04:21:10.859Z,15.03
2022-10-22T04:22:10.868Z,14.94
2022-10-22T04:23:10.829Z,14.95
2022-10-22T04:24:10.820Z,14.86
2022-10-22T04:25:10.818Z,14.84
2022-10-22T04:26:10.807Z,14.89
2022-10-22T04:27:10.816Z,14.78
2022-10-22T04:28:10.783Z,14.73
2022-10-22T04:29:13.575Z,14.80
2022-10-22T04:30:11.762Z,14.88
2022-10-22T04:31:10.759Z,14.91
2022-10-22T04:32:10.745Z,14.81
2022-10-22T04:33:10.746Z,14.78
2022-10-22T04:34:10.733Z,14.83
2022-10-22T04:35:10.713Z,14.77
2022-10-22T04:36:10.702Z,14.73
2022-10-22T04:37:10.718Z,14.64
2022-10-22T04:38:10.680Z,14.70
2022-10-22T04:39:10.671Z,14.70
2022-10-22T04:40:10.666Z,14.68
2022-10-22T04:41:10.670Z,14.69
2022-10-22T04:42:10.670Z,14.60
2022-10-22T04:43:10.635Z,14.64
2022-10-22T04:44:13.635Z,14.61
2022-10-22T04:45:11.623Z,14.70
2022-10-22T04:46:10.609Z,14.65
2022-10-22T04:47:10.602Z,14.72
2022-10-22T04:48:10.600Z,14.62
2022-10-22T04:49:10.577Z,14.69
2022-10-22T04:50:10.580Z,14.70
2022-10-22T04:51:10.614Z,14.69
2022-10-22T04:52:10.542Z,14.60
2022-10-22T04:53:10.527Z,14.70
2022-10-22T04:54:10.514Z,14.69
2022-10-22T04:55:10.511Z,14.64
2022-10-22T04:56:10.520Z,14.57
2022-10-22T04:57:10.507Z,14.62
2022-10-22T04:58:10.479Z,14.65
2022-10-22T04:59:10.476Z,14.65
2022-10-22T05:00:10.467Z,14.73
2022-10-22T05:01:10.562Z,14.69
2022-10-22T05:02:10.462Z,14.77
2022-10-22T05:03:10.431Z,14.80
2022-10-22T05:04:10.434Z,14.80
2022-10-22T05:05:10.410Z,14.88
2022-10-22T05:06:10.435Z,14.84
2022-10-22T05:07:10.406Z,14.89
2022-10-22T05:08:10.410Z,14.91
2022-10-22T05:09:10.493Z,14.99
2022-10-22T05:10:10.378Z,14.96
2022-10-22T05:11:10.366Z,14.95
2022-10-22T05:12:10.383Z,15.01
2022-10-22T05:13:10.349Z,15.09
2022-10-22T05:14:10.322Z,15.13
2022-10-22T05:15:10.308Z,15.11
2022-10-22T05:16:10.309Z,15.13
2022-10-22T05:17:10.311Z,15.10
2022-10-22T05:18:10.278Z,15.09
2022-10-22T05:19:10.265Z,15.01
2022-10-22T05:20:10.283Z,15.07
2022-10-22T05:21:10.248Z,15.03
2022-10-22T05:22:11.224Z,15.03
2022-10-22T05:23:11.251Z,15.02
2022-10-22T05:24:10.220Z,15.07
2022-10-22T05:25:10.211Z,15.03
2022-10-22T05:26:10.197Z,15.11
2022-10-22T05:27:10.225Z,15.02
2022-10-22T05:28:10.197Z,15.09
2022-10-22T05:29:10.165Z,15.06
2022-10-22T05:30:10.163Z,15.01
2022-10-22T05:31:10.159Z,15.06
2022-10-22T05:32:10.133Z,15.11
2022-10-22T05:33:10.144Z,15.02
2022-10-22T05:34:10.112Z,15.02
2022-10-22T05:35:10.109Z,15.02
2022-10-22T05:36:10.112Z,15.01
2022-10-22T05:37:10.089Z,14.96
2022-10-22T05:38:10.073Z,14.96
2022-10-22T05:39:10.075Z,14.99
2022-10-22T05:40:19.505Z,14.89
2022-10-22T05:41:12.079Z,14.96
2022-10-22T05:42:10.032Z,14.96
2022-10-22T05:43:10.033Z,14.95
2022-10-22T05:44:10.012Z,14.95
2022-10-22T05:45:10.016Z,15.07
2022-10-22T05:46:10.076Z,15.07
2022-10-22T05:47:09.992Z,14.99
2022-10-22T05:48:09.962Z,14.99
2022-10-22T05:49:09.957Z,14.94
2022-10-22T05:50:09.966Z,14.94
2022-10-22T05:51:09.969Z,14.84
2022-10-22T05:52:09.929Z,14.81
2022-10-22T05:53:09.917Z,14.80
2022-10-22T05:54:09.940Z,14.69
2022-10-22T05:55:09.898Z,14.75
2022-10-22T05:56:09.892Z,14.69
2022-10-22T05:57:09.904Z,14.73
2022-10-22T05:58:09.863Z,14.72
2022-10-22T05:59:09.855Z,14.80
2022-10-22T06:00:12.832Z,14.69
2022-10-22T06:01:09.850Z,14.80
2022-10-22T06:02:09.911Z,14.73
2022-10-22T06:03:09.819Z,14.77
2022-10-22T06:04:09.806Z,14.69
2022-10-22T06:05:09.805Z,14.65
2022-10-22T06:06:09.789Z,14.55
2022-10-22T06:07:09.797Z,14.55
2022-10-22T06:08:09.779Z,14.46
2022-10-22T06:09:09.794Z,14.51
2022-10-22T06:10:09.738Z,14.50
2022-10-22T06:11:09.771Z,14.46
2022-10-22T06:12:09.731Z,14.45
2022-10-22T06:13:09.726Z,14.35
2022-10-22T06:14:09.718Z,14.43
2022-10-22T06:15:09.759Z,14.36
2022-10-22T06:16:09.691Z,14.42
2022-10-22T06:17:09.674Z,14.43
2022-10-22T06:18:09.686Z,14.35
2022-10-22T06:19:09.681Z,14.33
2022-10-22T06:20:09.655Z,14.35
2022-10-22T06:21:09.662Z,14.27
2022-10-22T06:22:09.654Z,14.32
2022-10-22T06:23:09.624Z,14.25
2022-10-22T06:24:09.611Z,14.27
2022-10-22T06:25:09.598Z,14.22
2022-10-22T06:26:09.607Z,14.22
2022-10-22T06:27:09.580Z,14.33
2022-10-22T06:28:09.572Z,14.35
2022-10-22T06:29:09.571Z,14.32
2022-10-22T06:30:09.557Z,14.22
2022-10-22T06:31:09.578Z,14.33
2022-10-22T06:32:09.542Z,14.35
2022-10-22T06:33:09.519Z,14.29
2022-10-22T06:34:09.509Z,14.25
2022-10-22T06:35:09.504Z,14.37
2022-10-22T06:36:09.526Z,14.21
2022-10-22T06:37:09.495Z,14.21
2022-10-22T06:38:09.474Z,14.24
2022-10-22T06:39:09.499Z,14.20
2022-10-22T06:40:09.468Z,14.28
2022-10-22T06:41:09.446Z,14.20
2022-10-22T06:42:09.439Z,14.17
2022-10-22T06:43:09.426Z,14.27
2022-10-22T06:44:09.439Z,14.18
2022-10-22T06:45:09.429Z,14.18
2022-10-22T06:46:09.393Z,14.22
2022-10-22T06:47:09.386Z,14.24
2022-10-22T06:48:09.381Z,14.10
2022-10-22T06:49:09.390Z,14.18
2022-10-22T06:50:09.389Z,14.12
2022-10-22T06:51:09.358Z,14.20
2022-10-22T06:52:09.339Z,14.07
2022-10-22T06:53:09.360Z,14.18
2022-10-22T06:54:09.334Z,14.10
2022-10-22T06:55:09.302Z,14.28
2022-10-22T06:56:09.307Z,14.15
2022-10-22T06:57:09.314Z,14.21
2022-10-22T06:58:09.277Z,14.24
2022-10-22T06:59:09.272Z,14.28
2022-10-22T07:00:09.256Z,14.25
2022-10-22T07:01:09.353Z,14.37
2022-10-22T07:02:09.236Z,14.39
2022-10-22T07:03:09.233Z,14.47
2022-10-22T07:04:09.229Z,14.45
2022-10-22T07:05:09.219Z,14.58
2022-10-22T07:06:09.221Z,14.57
2022-10-22T07:07:09.186Z,14.64
2022-10-22T07:08:09.199Z,14.64
2022-10-22T07:09:09.280Z,14.84
2022-10-22T07:10:09.219Z,14.99
2022-10-22T07:11:09.142Z,15.17
2022-10-22T07:12:09.132Z,15.31
2022-10-22T07:13:09.159Z,15.34
2022-10-22T07:14:09.120Z,15.53
2022-10-22T07:15:09.104Z,15.89
2022-10-22T07:16:09.114Z,16.05
2022-10-22T07:17:09.111Z,16.39
2022-10-22T07:18:09.073Z,17.06
2022-10-22T07:19:09.064Z,17.63
2022-10-22T07:20:09.056Z,18.07
2022-10-22T07:21:09.042Z,18.60
2022-10-22T07:22:09.069Z,18.67
2022-10-22T07:23:09.023Z,19.00
2022-10-22T07:24:09.062Z,19.31
2022-10-22T07:25:09.009Z,19.44
2022-10-22T07:26:09.015Z,19.62
2022-10-22T07:27:10.974Z,19.87
2022-10-22T07:28:08.994Z,20.05
2022-10-22T07:29:08.966Z,20.05
2022-10-22T07:30:08.954Z,20.03
2022-10-22T07:31:08.954Z,20.03
2022-10-22T07:32:08.951Z,20.08
2022-10-22T07:33:08.936Z,20.21
2022-10-22T07:34:08.974Z,20.18
2022-10-22T07:35:08.910Z,20.31
2022-10-22T07:36:08.897Z,20.28
2022-10-22T07:37:08.904Z,19.96
2022-10-22T07:38:08.881Z,20.06
2022-10-22T07:39:08.861Z,20.14
2022-10-22T07:40:08.868Z,20.23
2022-10-22T07:41:08.874Z,19.66
2022-10-22T07:42:08.839Z,19.59
2022-10-22T07:43:08.836Z,19.19
2022-10-22T07:44:08.823Z,18.66
2022-10-22T07:45:08.827Z,18.14
2022-10-22T07:46:08.836Z,17.62
2022-10-22T07:47:08.800Z,17.23
2022-10-22T07:48:08.780Z,17.07
2022-10-22T07:49:08.766Z,16.85
2022-10-22T07:50:08.777Z,16.71
2022-10-22T07:51:08.790Z,16.45
2022-10-22T07:52:08.763Z,16.31
2022-10-22T07:53:08.741Z,16.28
2022-10-22T07:54:08.760Z,16.28
2022-10-22T07:55:08.729Z,16.02
2022-10-22T07:56:08.701Z,16.09
2022-10-22T07:57:08.717Z,16.00
2022-10-22T07:58:08.692Z,15.97
2022-10-22T07:59:08.664Z,16.04
2022-10-22T08:00:08.656Z,15.94
2022-10-22T08:01:08.716Z,15.90
2022-10-22T08:02:08.670Z,15.86
2022-10-22T08:03:08.636Z,15.86
2022-10-22T08:04:08.638Z,15.90
2022-10-22T08:05:08.613Z,15.93
2022-10-22T08:06:08.601Z,15.92
2022-10-22T08:07:08.583Z,16.04
2022-10-22T08:08:08.577Z,16.00
2022-10-22T08:09:08.641Z,15.92
2022-10-22T08:10:08.577Z,16.00
2022-10-22T08:11:08.641Z,16.04
2022-10-22T08:12:08.542Z,16.01
2022-10-22T08:13:08.558Z,16.02
2022-10-22T08:14:08.542Z,16.00
2022-10-22T08:15:08.525Z,15.87
2022-10-22T08:16:08.529Z,15.82
2022-10-22T08:17:08.488Z,15.71
2022-10-22T08:18:08.487Z,15.82
2022-10-22T08:19:08.506Z,15.65
2022-10-22T08:20:08.461Z,15.64
2022-10-22T08:21:08.545Z,15.60
2022-10-22T08:22:08.462Z,15.57
2022-10-22T08:23:08.448Z,15.54
2022-10-22T08:24:08.443Z,15.56
2022-10-22T08:25:08.446Z,15.49
2022-10-22T08:26:08.417Z,15.46
2022-10-22T08:27:08.406Z,15.49
2022-10-22T08:28:08.383Z,15.44
2022-10-22T08:29:08.391Z,15.34
2022-10-22T08:30:08.406Z,15.35
2022-10-22T08:31:08.443Z,15.39
2022-10-22T08:32:08.362Z,15.44
2022-10-22T08:33:08.334Z,15.50
2022-10-22T08:34:08.349Z,15.41
2022-10-22T08:35:08.353Z,15.49
2022-10-22T08:36:08.315Z,15.39
2022-10-22T08:37:08.290Z,15.49
2022-10-22T08:38:08.288Z,15.51
2022-10-22T08:39:08.266Z,15.54
2022-10-22T08:40:08.277Z,15.56
2022-10-22T08:41:08.265Z,15.64
2022-10-22T08:42:08.236Z,15.69
2022-10-22T08:43:08.233Z,15.72
2022-10-22T08:44:08.234Z,15.64
2022-10-22T08:45:08.237Z,15.62
2022-10-22T08:46:08.208Z,15.74
2022-10-22T08:47:08.193Z,15.69
2022-10-22T08:48:08.178Z,15.74
2022-10-22T08:50:08.195Z,15.83
2022-10-22T08:51:40.055Z,15.94
2022-10-22T08:52:08.144Z,15.94
2022-10-22T08:53:08.129Z,15.89
2022-10-22T08:54:08.131Z,15.94
2022-10-22T08:55:08.108Z,15.94
2022-10-22T08:56:08.127Z,15.87
2022-10-22T08:57:08.089Z,15.93
2022-10-22T08:58:08.096Z,15.93
2022-10-22T08:59:08.069Z,15.93
2022-10-22T09:00:08.061Z,15.87
2022-10-22T09:01:08.047Z,15.84
2022-10-22T09:02:08.040Z,15.83
2022-10-22T09:03:08.064Z,15.96
2022-10-22T09:04:08.017Z,15.86
2022-10-22T09:05:11.510Z,16.00
2022-10-22T09:06:09.007Z,15.97
2022-10-22T09:07:08.008Z,15.86
2022-10-22T09:08:07.991Z,15.89
2022-10-22T09:09:08.038Z,15.83
2022-10-22T09:10:08.962Z,15.82
2022-10-22T09:11:07.951Z,15.78
2022-10-22T09:12:07.952Z,15.87
2022-10-22T09:13:07.936Z,15.76
2022-10-22T09:14:07.966Z,15.86
2022-10-22T09:15:07.916Z,15.86
2022-10-22T09:16:07.900Z,15.80
2022-10-22T09:17:07.893Z,15.86
2022-10-22T09:18:07.888Z,15.94
2022-10-22T09:19:07.900Z,15.84
2022-10-22T09:20:07.867Z,15.96
2022-10-22T09:21:07.852Z,16.05
2022-10-22T09:22:07.830Z,16.00
2022-10-22T09:23:07.836Z,16.00
2022-10-22T09:24:07.848Z,15.97
2022-10-22T09:25:07.834Z,16.05
2022-10-22T09:26:07.799Z,16.09
2022-10-22T09:27:07.792Z,16.20
2022-10-22T09:28:07.789Z,16.25
2022-10-22T09:29:07.776Z,16.28
2022-10-22T09:30:07.807Z,16.39
2022-10-22T09:31:07.784Z,16.38
2022-10-22T09:32:07.749Z,16.38
2022-10-22T09:33:07.745Z,16.42
2022-10-22T09:34:07.737Z,16.41
2022-10-22T09:35:07.718Z,16.42
2022-10-22T09:36:07.762Z,16.38
2022-10-22T09:37:07.684Z,16.43
2022-10-22T09:38:07.674Z,16.38
2022-10-22T09:39:07.726Z,16.43
2022-10-22T09:40:07.673Z,16.53
2022-10-22T09:41:07.645Z,16.50
2022-10-22T09:42:07.659Z,16.61
2022-10-22T09:43:07.628Z,16.57
2022-10-22T09:44:07.617Z,16.60
2022-10-22T09:45:07.617Z,16.52
2022-10-22T09:46:07.607Z,16.53
2022-10-22T09:47:07.625Z,16.53
2022-10-22T09:48:07.577Z,16.53
2022-10-22T09:49:07.577Z,16.58
2022-10-22T09:50:07.558Z,16.56
2022-10-22T09:51:07.547Z,16.48
2022-10-22T09:52:07.541Z,16.58
2022-10-22T09:53:07.563Z,16.49
2022-10-22T09:54:07.547Z,16.66
2022-10-22T09:55:07.513Z,16.82
2022-10-22T09:56:07.493Z,16.93
2022-10-22T09:57:07.492Z,16.94
2022-10-22T09:58:07.487Z,17.00
2022-10-22T09:59:07.492Z,17.12
2022-10-22T10:00:07.460Z,17.18
2022-10-22T10:01:07.457Z,17.08
2022-10-22T10:02:19.777Z,17.16
2022-10-22T10:03:09.471Z,17.19
2022-10-22T10:04:09.832Z,17.30
2022-10-22T10:05:08.418Z,17.26
2022-10-22T10:06:07.404Z,17.41
2022-10-22T10:07:07.390Z,17.38
2022-10-22T10:08:07.390Z,17.38
2022-10-22T10:09:07.457Z,17.36
2022-10-22T10:10:07.360Z,17.46
2022-10-22T10:11:07.370Z,17.38
2022-10-22T10:12:07.354Z,17.48
2022-10-22T10:13:07.334Z,17.48
2022-10-22T10:14:07.318Z,17.79
2022-10-22T10:15:07.307Z,17.89
2022-10-22T10:16:07.325Z,18.18
2022-10-22T10:17:07.290Z,18.18
2022-10-22T10:18:07.281Z,18.05
2022-10-22T10:19:07.282Z,17.90
2022-10-22T10:20:07.258Z,17.89
2022-10-22T10:21:07.306Z,17.55
2022-10-22T10:22:07.230Z,17.52
2022-10-22T10:23:07.236Z,17.46
2022-10-22T10:24:07.223Z,17.56
2022-10-22T10:25:07.213Z,17.55
2022-10-22T10:26:07.231Z,17.46
2022-10-22T10:27:07.200Z,17.52
2022-10-22T10:28:07.191Z,17.43
2022-10-22T10:29:07.183Z,17.49
2022-10-22T10:30:07.193Z,17.44
2022-10-22T10:31:07.161Z,17.58
2022-10-22T10:32:07.143Z,17.63
2022-10-22T10:33:07.156Z,17.66
2022-10-22T10:34:07.125Z,17.75
2022-10-22T10:35:07.124Z,17.89
2022-10-22T10:36:07.110Z,17.74
2022-10-22T10:37:07.094Z,17.78
2022-10-22T10:38:07.108Z,17.82
2022-10-22T10:39:07.080Z,17.90
2022-10-22T10:40:07.089Z,17.90
2022-10-22T10:41:07.066Z,17.99
2022-10-22T10:42:07.107Z,17.89
2022-10-22T10:43:07.038Z,18.02
2022-10-22T10:44:07.040Z,18.15
2022-10-22T10:45:07.060Z,18.18
2022-10-22T10:46:07.079Z,18.26
2022-10-22T10:47:07.029Z,18.41
2022-10-22T10:48:06.999Z,18.35
2022-10-22T10:49:06.984Z,18.44
2022-10-22T10:50:06.983Z,18.45
2022-10-22T10:51:06.961Z,18.42
2022-10-22T10:52:06.978Z,18.57
2022-10-22T10:53:06.961Z,18.55
2022-10-22T10:54:06.943Z,18.58
2022-10-22T10:55:07.860Z,18.48
2022-10-22T10:56:06.920Z,18.51
2022-10-22T10:57:06.943Z,18.47
2022-10-22T10:58:06.917Z,18.50
2022-10-22T10:59:06.882Z,18.48
2022-10-22T11:00:06.886Z,18.41
2022-10-22T11:01:06.863Z,18.42
2022-10-22T11:02:06.867Z,18.51
2022-10-22T11:03:06.879Z,18.51
2022-10-22T11:04:06.857Z,18.84
2022-10-22T11:05:06.823Z,18.95
2022-10-22T11:06:06.820Z,19.04
2022-10-22T11:07:11.460Z,19.08
2022-10-22T11:08:07.824Z,19.10
2022-10-22T11:09:06.844Z,18.92
2022-10-22T11:10:06.766Z,18.81
2022-10-22T11:11:07.895Z,18.81
2022-10-22T11:12:06.759Z,18.76
2022-10-22T11:13:06.746Z,18.75
2022-10-22T11:14:06.766Z,18.70
2022-10-22T11:15:06.737Z,18.60
2022-10-22T11:16:06.716Z,18.52
2022-10-22T11:17:06.713Z,18.45
2022-10-22T11:18:06.707Z,18.41
2022-10-22T11:19:06.707Z,18.42
2022-10-22T11:20:06.687Z,18.48
2022-10-22T11:21:06.674Z,18.63
2022-10-22T11:22:06.699Z,18.65
2022-10-22T11:23:19.391Z,18.70
2022-10-22T11:24:07.654Z,18.66
2022-10-22T11:25:06.645Z,18.65
2022-10-22T11:26:06.632Z,18.55
2022-10-22T11:27:06.623Z,18.63
2022-10-22T11:28:11.138Z,18.66
2022-10-22T11:29:07.596Z,18.75
2022-10-22T11:30:06.583Z,19.06
2022-10-22T11:31:06.574Z,19.25
2022-10-22T11:32:06.615Z,19.48
2022-10-22T11:33:06.562Z,19.56
2022-10-22T11:34:28.446Z,19.62
2022-10-22T11:35:07.565Z,19.87
2022-10-22T11:36:06.514Z,19.92
2022-10-22T11:37:06.512Z,19.99
2022-10-22T11:38:06.527Z,20.05
2022-10-22T11:39:06.560Z,20.02
2022-10-22T11:40:06.487Z,20.17
2022-10-22T11:41:06.496Z,20.18
2022-10-22T11:42:06.470Z,20.11
2022-10-22T11:43:06.475Z,20.06
2022-10-22T11:44:06.471Z,19.98
2022-10-22T11:45:06.442Z,20.03
2022-10-22T11:46:06.430Z,20.23
2022-10-22T11:47:06.423Z,20.01
2022-10-22T11:48:06.422Z,19.99
2022-10-22T11:49:06.401Z,19.83
2022-10-22T11:50:06.392Z,19.68
2022-10-22T11:51:06.403Z,19.65
2022-10-22T11:52:06.366Z,19.74
2022-10-22T11:53:06.385Z,19.54
2022-10-22T11:54:07.067Z,19.43
2022-10-22T11:55:06.338Z,19.36
2022-10-22T11:56:06.352Z,19.36
2022-10-22T11:57:06.340Z,19.31
2022-10-22T11:58:06.303Z,19.13
2022-10-22T11:59:06.289Z,19.06
2022-10-22T12:00:06.315Z,19.02
2022-10-22T12:01:06.276Z,19.07
2022-10-22T12:02:06.293Z,18.95
2022-10-22T12:03:06.260Z,18.92
2022-10-22T12:04:06.284Z,18.90
2022-10-22T12:05:06.252Z,18.84
2022-10-22T12:06:06.252Z,18.81
2022-10-22T12:07:06.227Z,18.91
2022-10-22T12:08:06.206Z,18.88
2022-10-22T12:09:06.278Z,18.87
2022-10-22T12:10:06.190Z,18.82
2022-10-22T12:11:06.209Z,18.85
2022-10-22T12:12:06.172Z,18.82
2022-10-22T12:13:06.163Z,18.73
2022-10-22T12:14:06.180Z,18.51
2022-10-22T12:15:06.143Z,18.47
2022-10-22T12:16:06.137Z,18.48
2022-10-22T12:17:06.164Z,18.42
2022-10-22T12:18:06.152Z,18.51
2022-10-22T12:19:06.117Z,18.67
2022-10-22T12:20:06.108Z,18.48
2022-10-22T12:21:06.097Z,18.73
2022-10-22T12:22:06.109Z,18.58
2022-10-22T12:23:06.066Z,18.67
2022-10-22T12:24:06.052Z,18.82
2022-10-22T12:25:06.046Z,18.98
2022-10-22T12:26:06.027Z,19.00
2022-10-22T12:27:06.046Z,19.04
2022-10-22T12:28:06.021Z,18.98
2022-10-22T12:29:06.017Z,18.98
2022-10-22T12:30:06.003Z,19.10
2022-10-22T12:31:05.995Z,19.02
2022-10-22T12:32:05.976Z,18.84
2022-10-22T12:33:05.997Z,18.87
2022-10-22T12:34:06.245Z,18.90
2022-10-22T12:35:05.963Z,18.90
2022-10-22T12:36:05.948Z,18.92
2022-10-22T12:37:05.940Z,18.99
2022-10-22T12:38:05.941Z,18.92
2022-10-22T12:39:05.960Z,18.78
2022-10-22T12:40:05.891Z,18.75
2022-10-22T12:41:05.905Z,18.67
2022-10-22T12:42:05.911Z,18.67
2022-10-22T12:43:06.927Z,18.69
2022-10-22T12:44:05.911Z,18.55
2022-10-22T12:45:05.867Z,18.62
2022-10-22T12:46:05.844Z,18.50
2022-10-22T12:47:05.843Z,18.48
2022-10-22T12:48:05.838Z,18.50
2022-10-22T12:49:05.831Z,18.50
2022-10-22T12:50:05.838Z,18.52
2022-10-22T12:51:05.795Z,18.54
2022-10-22T12:52:07.699Z,18.50
2022-10-22T12:53:05.776Z,18.52